createdAt,value
2023-01-05T00:04:29.761Z,13.6
2023-01-05T00:09:35.955Z,13.6
2023-01-05T00:14:42.169Z,13.6
2023-01-05T00:19:48.367Z,13.6
2023-01-05T00:24:54.574Z,13.6
2023-01-05T00:30:00.780Z,13.6
2023-01-05T00:35:06.988Z,13.5
2023-01-05T00:40:13.205Z,13.5
2023-01-05T00:45:19.445Z,13.5
2023-01-05T00:50:25.619Z,13.5
2023-01-05T00:55:31.965Z,13.5
2023-01-05T01:00:42.293Z,13.5
2023-01-05T01:05:44.233Z,13.4
2023-01-05T01:10:50.446Z,13.4
2023-01-05T01:15:56.647Z,13.4
2023-01-05T01:21:02.857Z,13.3
2023-01-05T01:26:09.066Z,13.3
2023-01-05T01:31:15.305Z,13.2
2023-01-05T01:36:21.993Z,13.2
2023-01-05T01:41:27.684Z,13.1
2023-01-05T01:46:33.902Z,13.1
2023-01-05T01:51:40.108Z,13.0
2023-01-05T01:56:46.313Z,12.9
2023-01-05T02:01:52.674Z,12.9
2023-01-05T02:06:58.733Z,12.9
2023-01-05T02:12:04.935Z,12.8
2023-01-05T02:17:10.236Z,12.8
2023-01-05T02:22:16.371Z,12.8
2023-01-05T02:27:22.576Z,12.8
2023-01-05T02:32:28.780Z,12.8
2023-01-05T02:37:34.999Z,12.8
2023-01-05T02:42:41.201Z,12.8
2023-01-05T02:47:47.410Z,12.8
2023-01-05T02:52:53.611Z,12.8
2023-01-05T02:57:59.826Z,12.8
2023-01-05T03:03:06.207Z,12.8
2023-01-05T03:08:12.243Z,12.8
2023-01-05T03:13:18.461Z,12.8
2023-01-05T03:18:24.661Z,12.8
2023-01-05T03:23:30.868Z,12.8
2023-01-05T03:28:37.075Z,12.9
2023-01-05T03:33:43.316Z,12.9
2023-01-05T03:38:49.489Z,12.9
2023-01-05T03:43:55.699Z,13.0
2023-01-05T03:49:01.906Z,13.0
2023-01-05T03:54:08.108Z,13.1
2023-01-05T03:59:14.316Z,13.1
2023-01-05T04:04:20.525Z,13.1
2023-01-05T04:09:26.756Z,13.2
2023-01-05T04:14:32.966Z,13.2
2023-01-05T04:19:39.158Z,13.2
2023-01-05T04:24:45.380Z,13.3
2023-01-05T04:29:51.673Z,13.3
2023-01-05T04:34:57.784Z,13.3
2023-01-05T04:40:03.995Z,13.3
2023-01-05T04:45:10.201Z,13.3
2023-01-05T04:50:16.415Z,13.4
2023-01-05T04:55:22.619Z,13.4
2023-01-05T05:00:28.822Z,13.4
2023-01-05T05:05:35.026Z,13.4
2023-01-05T05:10:41.235Z,13.4
2023-01-05T05:15:47.483Z,13.4
2023-01-05T05:20:53.660Z,13.4
2023-01-05T05:25:59.865Z,13.4
2023-01-05T05:31:06.102Z,13.4
2023-01-05T05:36:12.285Z,13.4
2023-01-05T05:41:18.511Z,13.4
2023-01-05T05:46:24.725Z,13.4
2023-01-05T05:51:30.913Z,13.5
2023-01-05T05:56:37.117Z,13.4
2023-01-05T06:01:43.461Z,13.5
2023-01-05T06:06:49.533Z,13.5
2023-01-05T06:11:55.734Z,13.4
2023-01-05T06:17:01.962Z,13.5
2023-01-05T06:22:08.160Z,13.5
2023-01-05T06:27:14.367Z,13.4
2023-01-05T06:32:20.591Z,13.4
2023-01-05T06:37:26.785Z,13.4
2023-01-05T06:42:33.000Z,13.4
2023-01-05T06:47:39.198Z,13.4
2023-01-05T06:52:45.411Z,13.4
2023-01-05T06:57:57.122Z,13.4
2023-01-05T07:02:57.840Z,13.3
2023-01-05T07:08:04.043Z,13.3
2023-01-05T07:13:10.256Z,13.2
2023-01-05T07:18:16.447Z,13.2
2023-01-05T07:23:22.884Z,13.2
2023-01-05T07:28:28.870Z,13.2
2023-01-05T07:33:39.528Z,13.1
2023-01-05T07:38:41.293Z,13.2
2023-01-05T07:43:47.495Z,13.1
2023-01-05T07:48:53.716Z,13.1
2023-01-05T07:53:58.924Z,13.1
2023-01-05T07:59:05.137Z,13.2
2023-01-05T08:04:11.353Z,13.2
2023-01-05T08:09:17.556Z,13.2
2023-01-05T08:14:23.769Z,13.2
2023-01-05T08:19:29.965Z,13.2
2023-01-05T08:24:36.173Z,13.2
2023-01-05T08:29:42.386Z,13.2
2023-01-05T08:34:55.084Z,13.2
2023-01-05T08:39:54.910Z,13.2
2023-01-05T08:45:01.013Z,13.2
2023-01-05T08:50:07.212Z,13.2
2023-01-05T08:55:13.426Z,13.2
2023-01-05T09:00:19.630Z,13.2
2023-01-05T09:05:25.839Z,13.2
2023-01-05T09:10:32.050Z,13.2
2023-01-05T09:15:38.250Z,13.3
2023-01-05T09:20:44.464Z,13.3
2023-01-05T09:25:50.668Z,13.3
2023-01-05T09:30:56.967Z,13.3
2023-01-05T09:41:09.424Z,13.4
2023-01-05T09:51:21.712Z,13.4
2023-01-05T09:57:07.386Z,13.4
2023-01-05T10:01:34.224Z,13.5
2023-01-05T10:06:40.334Z,13.5
2023-01-05T10:11:46.544Z,13.5
2023-01-05T10:16:57.858Z,13.5
2023-01-05T10:21:58.963Z,13.6
2023-01-05T10:32:11.377Z,13.6
2023-01-05T10:37:17.583Z,13.6
2023-01-05T10:42:23.803Z,13.7
2023-01-05T10:47:30.011Z,13.7
2023-01-05T10:52:36.219Z,13.8
2023-01-05T10:57:42.426Z,13.8
2023-01-05T11:02:48.697Z,13.8
2023-01-05T11:07:55.019Z,13.9
2023-01-05T11:13:01.064Z,13.9
2023-01-05T11:18:07.270Z,13.9
2023-01-05T11:23:13.476Z,13.9
2023-01-05T11:28:19.699Z,14.0
2023-01-05T11:33:26.105Z,14.0
2023-01-05T11:38:32.115Z,14.1
2023-01-05T11:43:38.327Z,14.1
2023-01-05T11:48:44.524Z,14.1
2023-01-05T11:53:50.743Z,14.1
2023-01-05T11:58:56.946Z,14.1
2023-01-05T12:04:03.185Z,14.1
2023-01-05T12:09:09.428Z,14.1
2023-01-05T12:14:15.602Z,14.2
2023-01-05T12:19:21.792Z,14.3
2023-01-05T12:24:28.016Z,14.3
2023-01-05T12:31:02.858Z,14.3
2023-01-05T12:34:40.426Z,14.3
2023-01-05T12:39:46.638Z,14.3
2023-01-05T12:44:52.846Z,14.3
2023-01-05T12:49:59.065Z,14.2
2023-01-05T12:55:05.290Z,14.2
2023-01-05T13:00:11.487Z,14.1
2023-01-05T13:05:17.699Z,14.0
2023-01-05T13:10:23.909Z,14.1
2023-01-05T13:15:30.389Z,14.1
2023-01-05T13:20:36.341Z,14.2
2023-01-05T13:25:41.899Z,14.2
2023-01-05T13:30:47.768Z,14.3
2023-01-05T13:35:53.993Z,14.3
2023-01-05T13:41:00.194Z,14.3
2023-01-05T13:46:06.417Z,14.3
2023-01-05T13:51:11.671Z,14.3
2023-01-05T13:56:17.863Z,14.3
2023-01-05T14:01:24.072Z,14.3
2023-01-05T14:06:30.273Z,14.3
2023-01-05T14:11:36.483Z,14.2
2023-01-05T14:16:42.761Z,14.2
2023-01-05T14:21:48.954Z,14.2
2023-01-05T14:26:55.126Z,14.2
2023-01-05T14:32:01.453Z,14.2
2023-01-05T14:37:07.679Z,14.2
2023-01-05T14:42:13.748Z,14.2
2023-01-05T14:47:19.972Z,14.2
2023-01-05T14:52:26.176Z,14.2
2023-01-05T14:57:32.388Z,14.1
2023-01-05T15:02:38.601Z,14.1
2023-01-05T15:07:44.829Z,14.0
2023-01-05T15:12:52.930Z,14.0
2023-01-05T15:17:57.229Z,14.0
2023-01-05T15:23:03.438Z,13.9
2023-01-05T15:28:09.652Z,13.9
2023-01-05T15:33:15.855Z,13.8
2023-01-05T15:38:22.068Z,13.8
2023-01-05T15:43:28.286Z,13.7
2023-01-05T15:48:34.487Z,13.7
2023-01-05T15:53:40.733Z,13.7
2023-01-05T15:58:46.912Z,13.6
2023-01-05T16:03:53.110Z,13.5
2023-01-05T16:08:59.329Z,13.5
2023-01-05T16:14:05.545Z,13.5
2023-01-05T16:19:11.746Z,13.4
2023-01-05T16:24:17.953Z,13.4
2023-01-05T16:29:24.171Z,13.3
2023-01-05T16:34:30.380Z,13.3
2023-01-05T16:39:36.583Z,13.3
2023-01-05T18:57:24.200Z,13.1
2023-01-05T19:02:30.403Z,13.1
2023-01-05T19:07:35.648Z,13.1
2023-01-05T19:12:54.093Z,13.1
2023-01-05T19:18:12.548Z,13.2
2023-01-05T19:23:30.993Z,13.2
2023-01-05T19:28:49.428Z,13.2
2023-01-05T19:33:54.664Z,13.3
2023-01-05T19:39:07.226Z,13.3
2023-01-05T19:44:12.220Z,13.3
2023-01-05T19:49:24.567Z,13.4
2023-01-05T19:54:29.810Z,13.4
2023-01-05T19:59:42.118Z,13.4
2023-01-05T20:04:53.473Z,13.4
2023-01-05T20:10:05.801Z,13.5
2023-01-05T20:15:18.140Z,13.5
2023-01-05T20:20:30.452Z,13.5
2023-01-05T20:25:42.861Z,13.5
2023-01-05T20:30:55.163Z,13.5
2023-01-05T20:36:06.461Z,13.4
2023-01-05T20:41:12.925Z,13.4
2023-01-05T20:46:18.908Z,13.4
2023-01-05T20:51:25.091Z,13.4
2023-01-05T20:56:31.297Z,13.3
2023-01-05T21:01:37.585Z,13.3
2023-01-05T21:06:43.734Z,13.3
2023-01-05T21:11:49.909Z,13.3
2023-01-05T21:16:56.125Z,13.3
2023-01-05T21:22:02.330Z,13.3
2023-01-05T21:27:08.541Z,13.2
2023-01-05T21:32:14.758Z,13.2
2023-01-05T21:37:20.958Z,13.2
2023-01-05T21:42:27.170Z,13.1
2023-01-05T21:47:33.372Z,13.1
2023-01-05T21:52:39.612Z,13.0
2023-01-05T21:57:45.820Z,12.9
2023-01-05T22:02:51.994Z,12.9
2023-01-05T22:07:58.214Z,12.9
2023-01-05T22:13:04.409Z,12.8
2023-01-05T22:18:10.626Z,12.8
2023-01-05T22:23:15.859Z,12.7
2023-01-05T22:28:22.067Z,12.7
2023-01-05T22:33:27.309Z,12.6
2023-01-05T22:38:33.572Z,12.6
2023-01-05T22:43:39.718Z,12.5
2023-01-05T22:48:45.935Z,12.5
2023-01-05T22:53:52.160Z,12.5
2023-01-05T22:58:58.400Z,12.5
2023-01-05T23:04:04.547Z,12.5
2023-01-05T23:09:10.755Z,12.5
2023-01-05T23:14:16.962Z,12.6
2023-01-05T23:19:23.185Z,12.6
2023-01-05T23:24:29.383Z,12.7
2023-01-05T23:29:35.590Z,12.7
2023-01-05T23:34:41.801Z,12.7
2023-01-05T23:39:48.005Z,12.8
2023-01-05T23:44:54.212Z,12.8
2023-01-05T23:50:00.428Z,12.8
2023-01-05T23:55:06.630Z,12.8
